Time;durP1;ratioP1;P1;durP2;ratioP2;P2;SDS_P1;SDS_P2;PMS_P1;PMS_P2;Temp;Humidity;BMP_temperature;BMP_pressure;BME280_temperature;BME280_humidity;BME280_pressure;Samples;Min_cycle;Max_cycle;Signal;HPM_P1;HPM_P2
2023/04/15 00:00:09;;;;;;;;;;;;;;;;;;5001988;28;19915;-73
2023/04/15 00:02:40;;;;;;;;;;;;;;;;;;5026003;28;19957;-74
2023/04/15 00:05:05;;;;;;;;;;;;;;;;;;5000568;28;19995;-74
2023/04/15 00:07:31;;;;;;;;;;;;;;;;;;4993828;28;20364;-74
2023/04/15 00:10:00;;;;;;;;;;;;;;;;;;4982660;28;19921;-73
2023/04/15 00:12:25;;;;;;;;;;;;;;;;;;4990792;28;19941;-74
2023/04/15 00:14:50;;;;;;;;;;;;;;;;;;4993177;28;19967;-73
2023/04/15 00:17:16;;;;;;;;;;;;;;;;;;4992520;28;19909;-72
2023/04/15 00:19:43;;;;;;;;;;;;;;;;;;4996834;28;20384;-73
2023/04/15 00:22:08;;;;;;;;;;;;;;;;;;4998034;28;20007;-75
2023/04/15 00:24:33;;;;;;;;;;;;;;;;;;4998562;28;20372;-75
2023/04/15 00:26:58;;;;;;;;;;;;;;;;;;4994407;28;20282;-75
2023/04/15 00:29:24;;;;;;;;;;;;;;;;;;4999532;28;19913;-75
2023/04/15 00:31:49;;;;;;;;;;;;;;;;;;4995175;28;19956;-75
2023/04/15 00:34:15;;;;;;;;;;;;;;;;;;5001890;28;19992;-75
2023/04/15 00:36:41;;;;;;;;;;;;;;;;;;4999476;28;19914;-75
2023/04/15 00:39:07;;;;;;;;;;;;;;;;;;5000855;28;20300;-73
2023/04/15 00:41:33;;;;;;;;;;;;;;;;;;4999418;28;20455;-75
2023/04/15 00:43:59;;;;;;;;;;;;;;;;;;5003496;28;19909;-75
2023/04/15 00:46:24;;;;;;;;;;;;;;;;;;5019917;28;19920;-75
2023/04/15 00:48:50;;;;;;;;;;;;;;;;;;5003189;28;19909;-75
2023/04/15 00:51:16;;;;;;;;;;;;;;;;;;4999863;28;19913;-75
2023/04/15 00:53:42;;;;;;;;;;;;;;;;;;5001952;28;20368;-75
2023/04/15 00:56:07;;;;;;;;;;;;;;;;;;5000942;28;19920;-74
2023/04/15 00:58:33;;;;;;;;;;;;;;;;;;5004433;28;19913;-74
2023/04/15 01:00:58;;;;;;;;;;;;;;;;;;5025267;28;19914;-74
2023/04/15 01:03:24;;;;;;;;;;;;;;;;;;4997835;28;20364;-74
2023/04/15 01:05:49;;;;;;;;;;;;;;;;;;5027378;28;20388;-75
2023/04/15 01:08:15;;;;;;;;;;;;;;;;;;5026620;28;20296;-75
2023/04/15 01:10:40;;;;;;;;;;;;;;;;;;4994125;28;19976;-75
2023/04/15 01:13:06;;;;;;;;;;;;;;;;;;4995981;28;19910;-74
2023/04/15 01:15:31;;;;;;;;;;;;;;;;;;4996771;28;20380;-75
2023/04/15 01:17:57;;;;;;;;;;;;;;;;;;4993516;28;19910;-75
2023/04/15 01:20:22;;;;;;;;;;;;;;;;;;4996309;28;20408;-74
2023/04/15 01:22:47;;;;;;;;;;;;;;;;;;5026423;28;19920;-75
2023/04/15 01:25:13;;;;;;;;;;;;;;;;;;4994046;28;20317;-75
2023/04/15 01:27:39;;;;;;;;;;;;;;;;;;4977870;28;20004;-75
2023/04/15 01:30:05;;;;;;;;;;;;;;;;;;5024847;28;19921;-74
2023/04/15 01:32:30;;;;;;;;;;;;;;;;;;4998690;28;19914;-74
2023/04/15 01:34:56;;;;;;;;;;;;;;;;;;5026166;28;20424;-74
2023/04/15 01:37:22;;;;;;;;;;;;;;;;;;4991994;28;19972;-75
2023/04/15 01:39:49;;;;;;;;;;;;;;;;;;5022081;28;19918;-75
2023/04/15 01:42:14;;;;;;;;;;;;;;;;;;4995891;28;19920;-75
2023/04/15 01:44:41;;;;;;;;;;;;;;;;;;4994382;28;19971;-75
2023/04/15 01:47:06;;;;;;;;;;;;;;;;;;4995500;28;19909;-75
2023/04/15 01:49:31;;;;;;;;;;;;;;;;;;4994132;28;19961;-75
2023/04/15 01:51:57;;;;;;;;;;;;;;;;;;4994807;28;19909;-75
2023/04/15 01:54:23;;;;;;;;;;;;;;;;;;4996324;28;20431;-74
2023/04/15 01:56:49;;;;;;;;;;;;;;;;;;5026058;28;19945;-73
2023/04/15 01:59:15;;;;;;;;;;;;;;;;;;5026106;28;19963;-73
2023/04/15 02:01:41;;;;;;;;;;;;;;;;;;4993343;28;19920;-73
2023/04/15 02:04:31;;;;;;;;;;;;;;;;;;4997808;28;20008;-73
2023/04/15 02:06:58;;;;;;;;;;;;;;;;;;4997006;28;20280;-74
2023/04/15 02:09:23;;;;;;;;;;;;;;;;;;4999574;28;19999;-74
2023/04/15 02:11:49;;;;;;;;;;;;;;;;;;4995772;28;19917;-74
2023/04/15 02:14:14;;;;;;;;;;;;;;;;;;5023977;28;19917;-74
2023/04/15 02:16:40;;;;;;;;;;;;;;;;;;4993759;28;20357;-74
2023/04/15 02:19:06;;;;;;;;;;;;;;;;;;4993468;28;19917;-74
2023/04/15 02:21:31;;;;;;;;;;;;;;;;;;4992450;28;20369;-74
2023/04/15 02:23:57;;;;;;;;;;;;;;;;;;4990690;28;19909;-75
2023/04/15 02:26:24;;;;;;;;;;;;;;;;;;5001504;28;20407;-74
2023/04/15 02:28:50;;;;;;;;;;;;;;;;;;4993886;28;19912;-73
2023/04/15 02:31:15;;;;;;;;;;;;;;;;;;4994114;28;19921;-74
2023/04/15 02:33:40;;;;;;;;;;;;;;;;;;4996390;28;19963;-75
2023/04/15 02:36:07;;;;;;;;;;;;;;;;;;4995199;28;19914;-74
2023/04/15 02:38:32;;;;;;;;;;;;;;;;;;5024994;28;20388;-73
2023/04/15 02:40:57;;;;;;;;;;;;;;;;;;4995129;28;19964;-74
2023/04/15 02:43:23;;;;;;;;;;;;;;;;;;4999092;28;20269;-74
2023/04/15 02:45:50;;;;;;;;;;;;;;;;;;4994812;28;20434;-74
2023/04/15 02:48:17;;;;;;;;;;;;;;;;;;5024833;28;19910;-73
2023/04/15 02:50:43;;;;;;;;;;;;;;;;;;4995388;28;19964;-74
2023/04/15 02:53:10;;;;;;;;;;;;;;;;;;5024743;28;20013;-74
2023/04/15 02:55:36;;;;;;;;;;;;;;;;;;4995218;28;20424;-73
2023/04/15 02:58:01;;;;;;;;;;;;;;;;;;5024732;28;19999;-74
2023/04/15 03:00:27;;;;;;;;;;;;;;;;;;4995253;28;19913;-73
2023/04/15 03:02:55;;;;;;;;;;;;;;;;;;5024364;28;19964;-73
2023/04/15 03:05:20;;;;;;;;;;;;;;;;;;4996214;28;19913;-73
2023/04/15 03:07:48;;;;;;;;;;;;;;;;;;5024676;28;20008;-74
2023/04/15 03:10:14;;;;;;;;;;;;;;;;;;4972400;28;19946;-75
2023/04/15 03:12:39;;;;;;;;;;;;;;;;;;5025332;28;19954;-75
2023/04/15 03:15:05;;;;;;;;;;;;;;;;;;4993015;28;19914;-74
2023/04/15 03:17:35;;;;;;;;;;;;;;;;;;4993294;28;19960;-74
2023/04/15 03:20:01;;;;;;;;;;;;;;;;;;4977900;28;19964;-74
2023/04/15 03:22:27;;;;;;;;;;;;;;;;;;4995667;28;19918;-74
2023/04/15 03:24:53;;;;;;;;;;;;;;;;;;5008732;28;20007;-75
2023/04/15 03:27:18;;;;;;;;;;;;;;;;;;4996257;28;20397;-74
2023/04/15 03:29:43;;;;;;;;;;;;;;;;;;4993354;28;20012;-75
2023/04/15 03:32:09;;;;;;;;;;;;;;;;;;4978059;28;19913;-74
2023/04/15 03:34:34;;;;;;;;;;;;;;;;;;4993634;28;19922;-74
2023/04/15 03:37:00;;;;;;;;;;;;;;;;;;4995701;28;19909;-74
2023/04/15 03:39:26;;;;;;;;;;;;;;;;;;4995496;28;19914;-75
2023/04/15 03:41:51;;;;;;;;;;;;;;;;;;4997646;28;19913;-74
2023/04/15 03:44:16;;;;;;;;;;;;;;;;;;4995601;28;19920;-73
2023/04/15 03:46:41;;;;;;;;;;;;;;;;;;4997470;28;20323;-75
2023/04/15 03:49:07;;;;;;;;;;;;;;;;;;4985445;28;19914;-74
2023/04/15 03:51:33;;;;;;;;;;;;;;;;;;4994563;28;19959;-74
2023/04/15 03:53:58;;;;;;;;;;;;;;;;;;4997172;28;19914;-74
2023/04/15 03:56:23;;;;;;;;;;;;;;;;;;4996387;28;19967;-73
2023/04/15 03:58:49;;;;;;;;;;;;;;;;;;4994579;28;19972;-73
2023/04/15 04:01:15;;;;;;;;;;;;;;;;;;4996384;28;19909;-74
2023/04/15 04:03:40;;;;;;;;;;;;;;;;;;4995298;28;19922;-74
2023/04/15 04:06:06;;;;;;;;;;;;;;;;;;4996849;28;20004;-73
2023/04/15 04:08:31;;;;;;;;;;;;;;;;;;4996916;28;19919;-74
2023/04/15 04:10:56;;;;;;;;;;;;;;;;;;4999580;28;19995;-74
2023/04/15 04:13:22;;;;;;;;;;;;;;;;;;4996377;28;20409;-74
2023/04/15 04:15:47;;;;;;;;;;;;;;;;;;4994898;28;19916;-74
2023/04/15 04:18:12;;;;;;;;;;;;;;;;;;4996544;28;19914;-74
2023/04/15 04:20:38;;;;;;;;;;;;;;;;;;4996658;28;20340;-73
2023/04/15 04:23:03;;;;;;;;;;;;;;;;;;5028502;28;19925;-73
2023/04/15 04:25:28;;;;;;;;;;;;;;;;;;4991953;28;20495;-75
2023/04/15 04:27:54;;;;;;;;;;;;;;;;;;4996135;28;20284;-75
2023/04/15 04:30:19;;;;;;;;;;;;;;;;;;4994335;28;21661;-75
2023/04/15 04:32:46;;;;;;;;;;;;;;;;;;4993980;28;20360;-75
2023/04/15 04:35:11;;;;;;;;;;;;;;;;;;4996462;28;19973;-75
2023/04/15 04:37:37;;;;;;;;;;;;;;;;;;4997004;28;20491;-74
2023/04/15 04:40:03;;;;;;;;;;;;;;;;;;4996698;28;19910;-75
2023/04/15 04:42:29;;;;;;;;;;;;;;;;;;4997003;28;20430;-75
2023/04/15 04:44:54;;;;;;;;;;;;;;;;;;4997938;28;19957;-75
2023/04/15 04:47:20;;;;;;;;;;;;;;;;;;4995883;28;20304;-75
2023/04/15 04:49:45;;;;;;;;;;;;;;;;;;4994558;28;20377;-75
2023/04/15 04:52:10;;;;;;;;;;;;;;;;;;4997653;28;19920;-75
2023/04/15 04:54:36;;;;;;;;;;;;;;;;;;4997310;28;19932;-75
2023/04/15 04:57:01;;;;;;;;;;;;;;;;;;4997566;28;19918;-75
2023/04/15 04:59:27;;;;;;;;;;;;;;;;;;4995548;28;20288;-76
2023/04/15 05:01:52;;;;;;;;;;;;;;;;;;5026942;28;20032;-75
2023/04/15 05:04:18;;;;;;;;;;;;;;;;;;4997104;28;19910;-75
2023/04/15 05:06:43;;;;;;;;;;;;;;;;;;4997093;28;20377;-74
2023/04/15 05:09:08;;;;;;;;;;;;;;;;;;4993190;28;19960;-74
2023/04/15 05:11:34;;;;;;;;;;;;;;;;;;4993220;28;19921;-74
2023/04/15 05:14:01;;;;;;;;;;;;;;;;;;4995384;28;19921;-76
2023/04/15 05:16:26;;;;;;;;;;;;;;;;;;4991378;28;19921;-75
2023/04/15 05:18:51;;;;;;;;;;;;;;;;;;4994120;28;19989;-74
2023/04/15 05:21:17;;;;;;;;;;;;;;;;;;4997618;28;19913;-74
2023/04/15 05:23:42;;;;;;;;;;;;;;;;;;4993617;28;19920;-74
2023/04/15 05:26:07;;;;;;;;;;;;;;;;;;5002103;28;19913;-76
2023/04/15 05:28:33;;;;;;;;;;;;;;;;;;5000886;28;19909;-74
2023/04/15 05:30:58;;;;;;;;;;;;;;;;;;4993976;28;20075;-75
2023/04/15 05:33:23;;;;;;;;;;;;;;;;;;4998600;28;20028;-76
2023/04/15 05:35:49;;;;;;;;;;;;;;;;;;4995174;28;20285;-77
2023/04/15 05:38:15;;;;;;;;;;;;;;;;;;4997657;28;19910;-76
2023/04/15 05:40:40;;;;;;;;;;;;;;;;;;4993791;28;19914;-75
2023/04/15 05:43:05;;;;;;;;;;;;;;;;;;4994703;28;19920;-76
2023/04/15 05:45:31;;;;;;;;;;;;;;;;;;4995494;28;19913;-75
2023/04/15 05:47:56;;;;;;;;;;;;;;;;;;4997964;28;19917;-76
2023/04/15 05:50:21;;;;;;;;;;;;;;;;;;4997770;28;19965;-77
2023/04/15 05:52:47;;;;;;;;;;;;;;;;;;4996047;28;19910;-76
2023/04/15 05:55:13;;;;;;;;;;;;;;;;;;5021494;28;19967;-76
2023/04/15 05:57:38;;;;;;;;;;;;;;;;;;5025299;28;19928;-78
2023/04/15 06:00:04;;;;;;;;;;;;;;;;;;5003086;28;19914;-76
2023/04/15 06:02:35;;;;;;;;;;;;;;;;;;4997541;28;20392;-76
2023/04/15 06:05:00;;;;;;;;;;;;;;;;;;4994807;28;19913;-77
2023/04/15 06:07:25;;;;;;;;;;;;;;;;;;4997227;28;20285;-76
2023/04/15 06:09:51;;;;;;;;;;;;;;;;;;5002953;28;20008;-75
2023/04/15 06:12:16;;;;;;;;;;;;;;;;;;4996879;28;19909;-76
2023/04/15 06:14:41;;;;;;;;;;;;;;;;;;5003007;28;19920;-75
2023/04/15 06:17:07;;;;;;;;;;;;;;;;;;4994438;28;19910;-76
2023/04/15 06:19:32;;;;;;;;;;;;;;;;;;4994083;28;20273;-76
2023/04/15 06:21:58;;;;;;;;;;;;;;;;;;4994381;28;21887;-76
2023/04/15 06:24:23;;;;;;;;;;;;;;;;;;4994062;28;20357;-76
2023/04/15 06:26:48;;;;;;;;;;;;;;;;;;4993982;28;20336;-76
2023/04/15 06:29:13;;;;;;;;;;;;;;;;;;4994179;28;19917;-75
2023/04/15 06:31:39;;;;;;;;;;;;;;;;;;4992703;28;19956;-75
2023/04/15 06:34:04;;;;;;;;;;;;;;;;;;4994044;28;19953;-75
2023/04/15 06:36:29;;;;;;;;;;;;;;;;;;5019948;28;19945;-75
2023/04/15 06:38:55;;;;;;;;;;;;;;;;;;4995416;28;19956;-75
2023/04/15 06:41:21;;;;;;;;;;;;;;;;;;5002011;28;20264;-75
2023/04/15 06:43:46;;;;;;;;;;;;;;;;;;5018684;28;19918;-75
2023/04/15 06:46:11;;;;;;;;;;;;;;;;;;5002573;28;19936;-75
2023/04/15 06:48:37;;;;;;;;;;;;;;;;;;5010003;28;19913;-75
2023/04/15 06:51:02;;;;;;;;;;;;;;;;;;5012101;28;20361;-75
2023/04/15 06:53:28;;;;;;;;;;;;;;;;;;5030428;28;19943;-76
2023/04/15 06:55:53;;;;;;;;;;;;;;;;;;5011799;28;19921;-75
2023/04/15 06:58:19;;;;;;;;;;;;;;;;;;4998187;28;19921;-75
2023/04/15 07:00:44;;;;;;;;;;;;;;;;;;5000676;28;20007;-74
2023/04/15 07:03:11;;;;;;;;;;;;;;;;;;5003071;28;20249;-75
2023/04/15 07:05:37;;;;;;;;;;;;;;;;;;4999155;28;20373;-76
2023/04/15 07:08:02;;;;;;;;;;;;;;;;;;5002525;28;19909;-75
2023/04/15 07:10:27;;;;;;;;;;;;;;;;;;4999119;28;20363;-76
2023/04/15 07:12:53;;;;;;;;;;;;;;;;;;4998849;28;20000;-76
2023/04/15 07:15:18;;;;;;;;;;;;;;;;;;5000202;28;19924;-76
2023/04/15 07:17:43;;;;;;;;;;;;;;;;;;4991528;28;20013;-76
2023/04/15 07:20:09;;;;;;;;;;;;;;;;;;4993115;28;20040;-75
2023/04/15 07:22:34;;;;;;;;;;;;;;;;;;4992319;28;19914;-75
2023/04/15 07:24:59;;;;;;;;;;;;;;;;;;4993494;28;20119;-75
2023/04/15 07:27:26;;;;;;;;;;;;;;;;;;4993115;28;20477;-76
2023/04/15 07:29:52;;;;;;;;;;;;;;;;;;4993331;28;19914;-75
2023/04/15 07:32:17;;;;;;;;;;;;;;;;;;4993030;28;20017;-76
2023/04/15 07:34:43;;;;;;;;;;;;;;;;;;4996720;28;20376;-76
2023/04/15 07:37:08;;;;;;;;;;;;;;;;;;4993713;28;19909;-76
2023/04/15 07:39:33;;;;;;;;;;;;;;;;;;4992363;28;19921;-76
2023/04/15 07:41:59;;;;;;;;;;;;;;;;;;4985028;28;19914;-77
2023/04/15 07:44:24;;;;;;;;;;;;;;;;;;4995305;28;19917;-74
2023/04/15 07:46:50;;;;;;;;;;;;;;;;;;5006069;28;20023;-76
2023/04/15 07:49:15;;;;;;;;;;;;;;;;;;5001628;28;19968;-76
2023/04/15 07:51:40;;;;;;;;;;;;;;;;;;5006251;28;19909;-76
2023/04/15 07:54:06;;;;;;;;;;;;;;;;;;5001871;28;19917;-75
2023/04/15 07:56:31;;;;;;;;;;;;;;;;;;5006895;28;19909;-74
2023/04/15 07:58:57;;;;;;;;;;;;;;;;;;5001443;28;19914;-82
2023/04/15 08:01:22;;;;;;;;;;;;;;;;;;5006706;28;19996;-81
2023/04/15 08:03:47;;;;;;;;;;;;;;;;;;5020063;28;19929;-79
2023/04/15 08:06:13;;;;;;;;;;;;;;;;;;5000779;28;20439;-82
2023/04/15 08:08:38;;;;;;;;;;;;;;;;;;5002045;28;19952;-80
2023/04/15 08:11:04;;;;;;;;;;;;;;;;;;5001021;28;20346;-82
2023/04/15 08:13:29;;;;;;;;;;;;;;;;;;4997226;28;19921;-81
2023/04/15 08:15:54;;;;;;;;;;;;;;;;;;4995924;28;19953;-83
2023/04/15 08:18:20;;;;;;;;;;;;;;;;;;4995128;28;19932;-83
2023/04/15 08:20:46;;;;;;;;;;;;;;;;;;4996223;28;19925;-81
2023/04/15 08:23:11;;;;;;;;;;;;;;;;;;5003160;28;20302;-84
2023/04/15 08:25:37;;;;;;;;;;;;;;;;;;5001530;28;19909;-86
2023/04/15 08:28:02;;;;;;;;;;;;;;;;;;4996144;28;19937;-84
2023/04/15 08:30:28;;;;;;;;;;;;;;;;;;4995820;28;19921;-85
2023/04/15 08:32:53;;;;;;;;;;;;;;;;;;4992006;28;19957;-86
2023/04/15 08:35:18;;;;;;;;;;;;;;;;;;4994492;28;19925;-82
2023/04/15 08:37:44;;;;;;;;;;;;;;;;;;4995272;28;19921;-86
2023/04/15 08:40:09;;;;;;;;;;;;;;;;;;5010106;28;19957;-87
2023/04/15 08:42:35;;;;;;;;;;;;;;;;;;4997606;28;19917;-87
2023/04/15 08:45:00;;;;;;;;;;;;;;;;;;5013324;28;19909;-87
2023/04/15 08:47:26;;;;;;;;;;;;;;;;;;5002325;28;19914;-86
2023/04/15 08:49:52;;;;;;;;;;;;;;;;;;4997101;28;19909;-79
2023/04/15 08:52:18;;;;;;;;;;;;;;;;;;4994745;28;20000;-79
2023/04/15 08:54:43;;;;;;;;;;;;;;;;;;4992591;28;20396;-79
2023/04/15 08:57:08;;;;;;;;;;;;;;;;;;4996014;28;19933;-79
2023/04/15 08:59:34;;;;;;;;;;;;;;;;;;4994283;28;19909;-78
2023/04/15 09:02:00;;;;;;;;;;;;;;;;;;4995237;28;20277;-79
2023/04/15 09:04:25;;;;;;;;;;;;;;;;;;5003737;28;20300;-79
2023/04/15 09:06:51;;;;;;;;;;;;;;;;;;4996463;28;19920;-79
2023/04/15 09:09:16;;;;;;;;;;;;;;;;;;4999074;28;19937;-78
2023/04/15 09:11:42;;;;;;;;;;;;;;;;;;4997610;28;19913;-79
2023/04/15 09:14:07;;;;;;;;;;;;;;;;;;4992114;28;19956;-79
2023/04/15 09:16:32;;;;;;;;;;;;;;;;;;4995786;28;20764;-80
2023/04/15 09:18:57;;;;;;;;;;;;;;;;;;4997539;28;19909;-80
2023/04/15 09:21:23;;;;;;;;;;;;;;;;;;4995701;28;19913;-79
2023/04/15 09:23:48;;;;;;;;;;;;;;;;;;5000261;28;20308;-79
2023/04/15 09:26:13;;;;;;;;;;;;;;;;;;4993966;28;19960;-79
2023/04/15 09:28:39;;;;;;;;;;;;;;;;;;4998878;28;19913;-80
2023/04/15 09:31:04;;;;;;;;;;;;;;;;;;4997573;28;20308;-79
2023/04/15 09:33:29;;;;;;;;;;;;;;;;;;4998833;28;20352;-80
2023/04/15 09:35:55;;;;;;;;;;;;;;;;;;4996311;28;19976;-79
2023/04/15 09:38:20;;;;;;;;;;;;;;;;;;4998496;28;19910;-78
2023/04/15 09:40:45;;;;;;;;;;;;;;;;;;4994126;28;20374;-79
2023/04/15 09:43:16;;;;;;;;;;;;;;;;;;4994850;28;20396;-79
2023/04/15 09:45:41;;;;;;;;;;;;;;;;;;4995437;28;19913;-79
2023/04/15 09:48:06;;;;;;;;;;;;;;;;;;4995615;28;19921;-79
2023/04/15 09:50:32;;;;;;;;;;;;;;;;;;4992272;28;19913;-78
2023/04/15 09:52:58;;;;;;;;;;;;;;;;;;4995889;28;19980;-79
2023/04/15 09:55:23;;;;;;;;;;;;;;;;;;4995336;28;20003;-80
2023/04/15 09:57:49;;;;;;;;;;;;;;;;;;4992358;28;19981;-78
2023/04/15 10:00:14;;;;;;;;;;;;;;;;;;4994215;28;19921;-80
2023/04/15 10:02:40;;;;;;;;;;;;;;;;;;5024769;28;20377;-79
2023/04/15 10:05:06;;;;;;;;;;;;;;;;;;4993555;28;19935;-78
2023/04/15 10:07:31;;;;;;;;;;;;;;;;;;4999841;28;20012;-79
2023/04/15 10:09:56;;;;;;;;;;;;;;;;;;4996045;28;19913;-79
2023/04/15 10:12:22;;;;;;;;;;;;;;;;;;4993362;28;19997;-79
2023/04/15 10:14:48;;;;;;;;;;;;;;;;;;4995486;28;19914;-78
2023/04/15 10:17:13;;;;;;;;;;;;;;;;;;5014529;28;19964;-78
2023/04/15 10:19:38;;;;;;;;;;;;;;;;;;4994153;28;20016;-80
2023/04/15 10:22:04;;;;;;;;;;;;;;;;;;4994192;28;19909;-79
2023/04/15 10:24:29;;;;;;;;;;;;;;;;;;4994773;28;19917;-79
2023/04/15 10:26:56;;;;;;;;;;;;;;;;;;4992508;28;19976;-80
2023/04/15 10:29:21;;;;;;;;;;;;;;;;;;5021153;28;20040;-79
2023/04/15 10:31:46;;;;;;;;;;;;;;;;;;4986436;28;19956;-80
2023/04/15 10:34:12;;;;;;;;;;;;;;;;;;4995037;28;20364;-80
2023/04/15 10:36:37;;;;;;;;;;;;;;;;;;4994159;28;19992;-80
2023/04/15 10:39:03;;;;;;;;;;;;;;;;;;5016649;28;20356;-79
2023/04/15 10:41:33;;;;;;;;;;;;;;;;;;4992833;28;19929;-78
2023/04/15 10:43:58;;;;;;;;;;;;;;;;;;4992500;28;19918;-78
2023/04/15 10:46:24;;;;;;;;;;;;;;;;;;4992498;28;19917;-80
2023/04/15 10:48:50;;;;;;;;;;;;;;;;;;4993770;28;19917;-80
2023/04/15 10:51:15;;;;;;;;;;;;;;;;;;4992254;28;19932;-80
2023/04/15 10:53:41;;;;;;;;;;;;;;;;;;4991591;28;19913;-80
2023/04/15 10:56:06;;;;;;;;;;;;;;;;;;4992315;28;20444;-79
2023/04/15 10:58:32;;;;;;;;;;;;;;;;;;5016952;28;19914;-79
2023/04/15 11:00:57;;;;;;;;;;;;;;;;;;4993512;28;19917;-80
2023/04/15 11:03:23;;;;;;;;;;;;;;;;;;4993434;28;19922;-79
2023/04/15 11:05:48;;;;;;;;;;;;;;;;;;4990894;28;19916;-80
2023/04/15 11:08:14;;;;;;;;;;;;;;;;;;5023855;28;19914;-79
2023/04/15 11:10:40;;;;;;;;;;;;;;;;;;4993636;28;19925;-79
2023/04/15 11:13:05;;;;;;;;;;;;;;;;;;4993053;28;19913;-79
2023/04/15 11:15:30;;;;;;;;;;;;;;;;;;4993777;28;20004;-79
2023/04/15 11:17:56;;;;;;;;;;;;;;;;;;4986086;28;19913;-79
2023/04/15 11:20:21;;;;;;;;;;;;;;;;;;4993840;28;19917;-79
2023/04/15 11:22:47;;;;;;;;;;;;;;;;;;4996058;28;20426;-78
2023/04/15 11:25:12;;;;;;;;;;;;;;;;;;4997877;28;19933;-78
2023/04/15 11:27:37;;;;;;;;;;;;;;;;;;4990439;28;20008;-75
2023/04/15 11:30:04;;;;;;;;;;;;;;;;;;5000985;28;19920;-75
2023/04/15 11:32:29;;;;;;;;;;;;;;;;;;4994399;28;19917;-77
2023/04/15 11:34:54;;;;;;;;;;;;;;;;;;4996245;28;19928;-76
2023/04/15 11:37:20;;;;;;;;;;;;;;;;;;5004369;28;20381;-79
2023/04/15 11:39:46;;;;;;;;;;;;;;;;;;4996794;28;20404;-79
2023/04/15 11:42:11;;;;;;;;;;;;;;;;;;4997469;28;19918;-81
2023/04/15 11:44:36;;;;;;;;;;;;;;;;;;4996352;28;20014;-81
2023/04/15 11:47:02;;;;;;;;;;;;;;;;;;4998415;28;19914;-79
2023/04/15 11:49:27;;;;;;;;;;;;;;;;;;4996287;28;19909;-81
2023/04/15 11:51:52;;;;;;;;;;;;;;;;;;4992167;28;20346;-80
2023/04/15 11:54:17;;;;;;;;;;;;;;;;;;4995735;28;20373;-80
2023/04/15 11:56:43;;;;;;;;;;;;;;;;;;4992412;28;19914;-80
2023/04/15 11:59:08;;;;;;;;;;;;;;;;;;4992243;28;19914;-80
2023/04/15 12:01:34;;;;;;;;;;;;;;;;;;5023044;28;20400;-80
2023/04/15 12:04:00;;;;;;;;;;;;;;;;;;4993069;28;19925;-80
2023/04/15 12:06:26;;;;;;;;;;;;;;;;;;4992766;28;20258;-80
2023/04/15 12:08:51;;;;;;;;;;;;;;;;;;4995993;28;19932;-81
2023/04/15 12:11:17;;;;;;;;;;;;;;;;;;5024187;28;19917;-81
2023/04/15 12:13:42;;;;;;;;;;;;;;;;;;4994037;28;19910;-81
2023/04/15 12:16:09;;;;;;;;;;;;;;;;;;4993679;28;19968;-80
2023/04/15 12:18:34;;;;;;;;;;;;;;;;;;4994404;28;20329;-81
2023/04/15 12:21:00;;;;;;;;;;;;;;;;;;4995522;28;20005;-81
2023/04/15 12:23:25;;;;;;;;;;;;;;;;;;4994416;28;19917;-81
2023/04/15 12:25:51;;;;;;;;;;;;;;;;;;4997126;28;19964;-80
2023/04/15 12:28:16;;;;;;;;;;;;;;;;;;4995577;28;19916;-81
2023/04/15 12:30:42;;;;;;;;;;;;;;;;;;5005823;28;19996;-81
2023/04/15 12:33:07;;;;;;;;;;;;;;;;;;5008781;28;19933;-80
2023/04/15 12:35:32;;;;;;;;;;;;;;;;;;5026947;28;19925;-79
2023/04/15 12:37:58;;;;;;;;;;;;;;;;;;4998095;28;20380;-79
2023/04/15 12:40:23;;;;;;;;;;;;;;;;;;4999372;28;19914;-82
2023/04/15 12:42:48;;;;;;;;;;;;;;;;;;4998422;28;19917;-80
2023/04/15 12:45:14;;;;;;;;;;;;;;;;;;4997669;28;19920;-81
2023/04/15 12:47:39;;;;;;;;;;;;;;;;;;4996276;28;19913;-81
2023/04/15 12:50:04;;;;;;;;;;;;;;;;;;4997292;28;19921;-80
2023/04/15 12:52:30;;;;;;;;;;;;;;;;;;4995487;28;20091;-80
2023/04/15 12:54:55;;;;;;;;;;;;;;;;;;4995659;28;20376;-81
2023/04/15 12:57:20;;;;;;;;;;;;;;;;;;4995822;28;19916;-81
2023/04/15 12:59:46;;;;;;;;;;;;;;;;;;4996851;28;19914;-81
2023/04/15 13:02:12;;;;;;;;;;;;;;;;;;4987446;28;19913;-79
2023/04/15 13:04:37;;;;;;;;;;;;;;;;;;4996794;28;20468;-81
2023/04/15 13:07:03;;;;;;;;;;;;;;;;;;4997778;28;19953;-81
2023/04/15 13:09:28;;;;;;;;;;;;;;;;;;4995622;28;20028;-81
2023/04/15 13:11:53;;;;;;;;;;;;;;;;;;4996684;28;19909;-80
2023/04/15 13:14:19;;;;;;;;;;;;;;;;;;4994993;28;21035;-80
2023/04/15 13:16:44;;;;;;;;;;;;;;;;;;4995980;28;20012;-80
2023/04/15 13:19:09;;;;;;;;;;;;;;;;;;4995161;28;19914;-80
2023/04/15 13:21:35;;;;;;;;;;;;;;;;;;4999992;28;20324;-81
2023/04/15 13:24:00;;;;;;;;;;;;;;;;;;4995130;28;19917;-80
2023/04/15 13:26:26;;;;;;;;;;;;;;;;;;4999731;28;19909;-80
2023/04/15 13:28:51;;;;;;;;;;;;;;;;;;4999118;28;19917;-81
2023/04/15 13:31:16;;;;;;;;;;;;;;;;;;4996438;28;19963;-80
2023/04/15 13:33:42;;;;;;;;;;;;;;;;;;4992470;28;20441;-80
2023/04/15 13:36:07;;;;;;;;;;;;;;;;;;4996010;28;19983;-81
2023/04/15 13:38:32;;;;;;;;;;;;;;;;;;5030786;28;19914;-80
2023/04/15 13:40:58;;;;;;;;;;;;;;;;;;4992039;28;19973;-80
2023/04/15 13:43:23;;;;;;;;;;;;;;;;;;4994746;28;19921;-80
2023/04/15 13:45:48;;;;;;;;;;;;;;;;;;4995005;28;19918;-80
2023/04/15 13:48:14;;;;;;;;;;;;;;;;;;4994790;28;20009;-81
2023/04/15 13:50:44;;;;;;;;;;;;;;;;;;4995119;28;19916;-80
2023/04/15 13:53:09;;;;;;;;;;;;;;;;;;4994605;28;20016;-80
2023/04/15 13:55:34;;;;;;;;;;;;;;;;;;5038008;28;20359;-81
2023/04/15 13:58:00;;;;;;;;;;;;;;;;;;5010502;28;19919;-81
2023/04/15 14:00:25;;;;;;;;;;;;;;;;;;5006633;28;20285;-81
2023/04/15 14:02:50;;;;;;;;;;;;;;;;;;5041942;28;19921;-81
2023/04/15 14:05:16;;;;;;;;;;;;;;;;;;5039024;28;19921;-81
2023/04/15 14:07:41;;;;;;;;;;;;;;;;;;5011678;28;20446;-81
2023/04/15 14:10:06;;;;;;;;;;;;;;;;;;5002243;28;20068;-81
2023/04/15 14:12:32;;;;;;;;;;;;;;;;;;4996347;28;20376;-81
2023/04/15 14:14:57;;;;;;;;;;;;;;;;;;4999544;28;19919;-80
2023/04/15 14:17:22;;;;;;;;;;;;;;;;;;5001308;28;19914;-80
2023/04/15 14:19:47;;;;;;;;;;;;;;;;;;5006160;28;19909;-77
2023/04/15 14:22:13;;;;;;;;;;;;;;;;;;5001155;28;19913;-79
2023/04/15 14:24:38;;;;;;;;;;;;;;;;;;4987548;28;19918;-78
2023/04/15 14:27:04;;;;;;;;;;;;;;;;;;5026260;28;19964;-79
2023/04/15 14:29:30;;;;;;;;;;;;;;;;;;5023669;28;20393;-80
2023/04/15 14:31:56;;;;;;;;;;;;;;;;;;5004391;28;20007;-79
2023/04/15 14:34:24;;;;;;;;;;;;;;;;;;4998793;28;19963;-80
2023/04/15 14:36:49;;;;;;;;;;;;;;;;;;4994596;28;19933;-82
2023/04/15 14:39:14;;;;;;;;;;;;;;;;;;4999461;28;19940;-81
2023/04/15 14:41:40;;;;;;;;;;;;;;;;;;4993522;28;20380;-79
2023/04/15 14:44:08;;;;;;;;;;;;;;;;;;5025317;28;20008;-78
2023/04/15 14:46:33;;;;;;;;;;;;;;;;;;4994652;28;19921;-79
2023/04/15 14:48:59;;;;;;;;;;;;;;;;;;4994052;28;19963;-79
2023/04/15 14:51:25;;;;;;;;;;;;;;;;;;4995703;28;19939;-79
2023/04/15 14:53:50;;;;;;;;;;;;;;;;;;4992269;28;20008;-78
2023/04/15 14:56:16;;;;;;;;;;;;;;;;;;4995339;28;19969;-79
2023/04/15 14:58:41;;;;;;;;;;;;;;;;;;4998696;28;19909;-78
2023/04/15 15:01:06;;;;;;;;;;;;;;;;;;4997700;28;19914;-79
2023/04/15 15:03:32;;;;;;;;;;;;;;;;;;4993706;28;20007;-79
2023/04/15 15:05:57;;;;;;;;;;;;;;;;;;4990527;28;20489;-79
2023/04/15 15:08:22;;;;;;;;;;;;;;;;;;4987343;28;19913;-78
2023/04/15 15:10:48;;;;;;;;;;;;;;;;;;4994507;28;20005;-79
2023/04/15 15:13:13;;;;;;;;;;;;;;;;;;4993241;28;19945;-78
2023/04/15 15:15:38;;;;;;;;;;;;;;;;;;4994082;28;19950;-78
2023/04/15 15:18:04;;;;;;;;;;;;;;;;;;5023304;28;19913;-78
2023/04/15 15:20:29;;;;;;;;;;;;;;;;;;4994801;28;19972;-77
2023/04/15 15:22:54;;;;;;;;;;;;;;;;;;4994099;28;19996;-77
2023/04/15 15:25:20;;;;;;;;;;;;;;;;;;4994837;28;19960;-77
2023/04/15 15:27:45;;;;;;;;;;;;;;;;;;4992110;28;20001;-78
2023/04/15 15:30:11;;;;;;;;;;;;;;;;;;4993973;28;19913;-78
2023/04/15 15:32:36;;;;;;;;;;;;;;;;;;4996461;28;19910;-78
2023/04/15 15:35:02;;;;;;;;;;;;;;;;;;4992939;28;19922;-78
2023/04/15 15:37:27;;;;;;;;;;;;;;;;;;4992554;28;19924;-77
2023/04/15 15:39:52;;;;;;;;;;;;;;;;;;4993699;28;19914;-78
2023/04/15 15:42:18;;;;;;;;;;;;;;;;;;5017796;28;19910;-78
2023/04/15 15:44:43;;;;;;;;;;;;;;;;;;4996626;28;19920;-78
2023/04/15 15:47:08;;;;;;;;;;;;;;;;;;4993606;28;19918;-78
2023/04/15 15:49:34;;;;;;;;;;;;;;;;;;5026115;28;19921;-78
2023/04/15 15:51:59;;;;;;;;;;;;;;;;;;4995692;28;20016;-78
2023/04/15 15:54:25;;;;;;;;;;;;;;;;;;4994486;28;19920;-78
2023/04/15 15:56:50;;;;;;;;;;;;;;;;;;4994282;28;20329;-77
2023/04/15 15:59:15;;;;;;;;;;;;;;;;;;4993727;28;20428;-77
2023/04/15 16:01:41;;;;;;;;;;;;;;;;;;5003335;28;19924;-79
2023/04/15 16:04:06;;;;;;;;;;;;;;;;;;5027225;28;19917;-77
2023/04/15 16:06:31;;;;;;;;;;;;;;;;;;5003303;28;19910;-78
2023/04/15 16:08:57;;;;;;;;;;;;;;;;;;5023480;28;20389;-79
2023/04/15 16:11:22;;;;;;;;;;;;;;;;;;4996291;28;19910;-79
2023/04/15 16:13:47;;;;;;;;;;;;;;;;;;5016630;28;20282;-78
2023/04/15 16:16:13;;;;;;;;;;;;;;;;;;4997962;28;19920;-79
2023/04/15 16:18:38;;;;;;;;;;;;;;;;;;4996599;28;19913;-80
2023/04/15 16:21:03;;;;;;;;;;;;;;;;;;4994011;28;19920;-80
2023/04/15 16:23:28;;;;;;;;;;;;;;;;;;4998876;28;20389;-79
2023/04/15 16:25:54;;;;;;;;;;;;;;;;;;5023234;28;19909;-79
2023/04/15 16:28:19;;;;;;;;;;;;;;;;;;4998526;28;20007;-79
2023/04/15 16:30:45;;;;;;;;;;;;;;;;;;5000430;28;19909;-79
2023/04/15 16:33:11;;;;;;;;;;;;;;;;;;4995950;28;19955;-79